sensor_id;sensor_type;location;lat;lon;timestamp;P1;durP1;ratioP1;P2;durP2;ratioP2
72813;SDS011;60945;48.516;-2.768;2022-12-07T00:00:52;24.63;;;13.25;;
72813;SDS011;60945;48.516;-2.768;2022-12-07T00:03:18;24.83;;;13.10;;
72813;SDS011;60945;48.516;-2.768;2022-12-07T00:05:43;24.80;;;12.63;;
72813;SDS011;60945;48.516;-2.768;2022-12-07T00:08:09;24.65;;;13.13;;
72813;SDS011;60945;48.516;-2.768;2022-12-07T00:10:35;25.85;;;13.95;;
72813;SDS011;60945;48.516;-2.768;2022-12-07T00:13:00;23.08;;;12.38;;
72813;SDS011;60945;48.516;-2.768;2022-12-07T00:15:26;26.23;;;12.88;;
72813;SDS011;60945;48.516;-2.768;2022-12-07T00:17:51;23.85;;;14.00;;
72813;SDS011;60945;48.516;-2.768;2022-12-07T00:20:17;27.75;;;15.35;;
72813;SDS011;60945;48.516;-2.768;2022-12-07T00:22:43;26.95;;;13.70;;
72813;SDS011;60945;48.516;-2.768;2022-12-07T00:25:08;28.73;;;14.00;;
72813;SDS011;60945;48.516;-2.768;2022-12-07T00:27:34;28.42;;;15.10;;
72813;SDS011;60945;48.516;-2.768;2022-12-07T00:29:59;29.05;;;14.00;;
72813;SDS011;60945;48.516;-2.768;2022-12-07T00:32:25;27.98;;;15.57;;
72813;SDS011;60945;48.516;-2.768;2022-12-07T00:34:51;27.20;;;15.10;;
72813;SDS011;60945;48.516;-2.768;2022-12-07T00:37:20;28.27;;;15.38;;
72813;SDS011;60945;48.516;-2.768;2022-12-07T00:39:45;28.45;;;14.80;;
72813;SDS011;60945;48.516;-2.768;2022-12-07T00:42:11;26.88;;;15.25;;
72813;SDS011;60945;48.516;-2.768;2022-12-07T00:44:37;26.88;;;14.32;;
72813;SDS011;60945;48.516;-2.768;2022-12-07T00:47:02;25.88;;;14.35;;
72813;SDS011;60945;48.516;-2.768;2022-12-07T00:49:30;28.35;;;14.85;;
72813;SDS011;60945;48.516;-2.768;2022-12-07T00:51:56;26.67;;;13.95;;
72813;SDS011;60945;48.516;-2.768;2022-12-07T00:54:21;24.08;;;13.95;;
72813;SDS011;60945;48.516;-2.768;2022-12-07T00:56:49;25.02;;;14.38;;
72813;SDS011;60945;48.516;-2.768;2022-12-07T00:59:15;27.52;;;15.32;;
72813;SDS011;60945;48.516;-2.768;2022-12-07T01:01:41;26.27;;;15.20;;
72813;SDS011;60945;48.516;-2.768;2022-12-07T01:04:06;28.80;;;14.52;;
72813;SDS011;60945;48.516;-2.768;2022-12-07T01:06:40;30.55;;;15.82;;
72813;SDS011;60945;48.516;-2.768;2022-12-07T01:09:06;29.45;;;15.82;;
72813;SDS011;60945;48.516;-2.768;2022-12-07T01:11:31;24.92;;;14.63;;
72813;SDS011;60945;48.516;-2.768;2022-12-07T01:13:58;25.92;;;14.48;;
72813;SDS011;60945;48.516;-2.768;2022-12-07T01:16:26;30.15;;;15.40;;
72813;SDS011;60945;48.516;-2.768;2022-12-07T01:18:54;24.00;;;13.57;;
72813;SDS011;60945;48.516;-2.768;2022-12-07T01:21:22;23.20;;;14.07;;
72813;SDS011;60945;48.516;-2.768;2022-12-07T01:23:52;29.30;;;15.07;;
72813;SDS011;60945;48.516;-2.768;2022-12-07T01:26:19;28.00;;;15.13;;
72813;SDS011;60945;48.516;-2.768;2022-12-07T01:28:47;26.80;;;15.55;;
72813;SDS011;60945;48.516;-2.768;2022-12-07T01:31:19;30.77;;;15.20;;
72813;SDS011;60945;48.516;-2.768;2022-12-07T01:33:47;32.30;;;15.48;;
72813;SDS011;60945;48.516;-2.768;2022-12-07T01:36:21;25.75;;;14.18;;
72813;SDS011;60945;48.516;-2.768;2022-12-07T01:38:50;29.42;;;14.57;;
72813;SDS011;60945;48.516;-2.768;2022-12-07T01:41:19;27.52;;;16.20;;
72813;SDS011;60945;48.516;-2.768;2022-12-07T01:46:46;25.00;;;13.77;;
72813;SDS011;60945;48.516;-2.768;2022-12-07T01:49:16;30.75;;;14.95;;
72813;SDS011;60945;48.516;-2.768;2022-12-07T01:54:43;26.40;;;14.45;;
72813;SDS011;60945;48.516;-2.768;2022-12-07T01:57:10;24.52;;;14.35;;
72813;SDS011;60945;48.516;-2.768;2022-12-07T01:59:38;30.10;;;16.23;;
72813;SDS011;60945;48.516;-2.768;2022-12-07T02:02:04;27.00;;;15.05;;
72813;SDS011;60945;48.516;-2.768;2022-12-07T02:04:42;27.52;;;14.40;;
72813;SDS011;60945;48.516;-2.768;2022-12-07T02:07:08;26.73;;;14.25;;
72813;SDS011;60945;48.516;-2.768;2022-12-07T02:09:37;29.23;;;14.60;;
72813;SDS011;60945;48.516;-2.768;2022-12-07T02:12:02;23.20;;;14.35;;
72813;SDS011;60945;48.516;-2.768;2022-12-07T02:14:29;22.85;;;13.68;;
72813;SDS011;60945;48.516;-2.768;2022-12-07T02:19:48;25.42;;;14.95;;
72813;SDS011;60945;48.516;-2.768;2022-12-07T02:25:13;26.35;;;14.30;;
72813;SDS011;60945;48.516;-2.768;2022-12-07T02:30:54;23.95;;;13.93;;
72813;SDS011;60945;48.516;-2.768;2022-12-07T02:41:15;24.67;;;13.55;;
72813;SDS011;60945;48.516;-2.768;2022-12-07T02:43:45;24.77;;;13.05;;
72813;SDS011;60945;48.516;-2.768;2022-12-07T02:46:27;24.50;;;13.98;;
72813;SDS011;60945;48.516;-2.768;2022-12-07T02:48:56;23.90;;;13.07;;
72813;SDS011;60945;48.516;-2.768;2022-12-07T02:51:24;20.98;;;12.00;;
72813;SDS011;60945;48.516;-2.768;2022-12-07T02:53:51;28.55;;;12.82;;
72813;SDS011;60945;48.516;-2.768;2022-12-07T02:56:20;23.10;;;13.00;;
72813;SDS011;60945;48.516;-2.768;2022-12-07T03:13:34;20.98;;;11.60;;
72813;SDS011;60945;48.516;-2.768;2022-12-07T03:16:20;22.70;;;11.95;;
72813;SDS011;60945;48.516;-2.768;2022-12-07T03:18:51;22.83;;;11.98;;
72813;SDS011;60945;48.516;-2.768;2022-12-07T03:21:39;22.95;;;12.02;;
72813;SDS011;60945;48.516;-2.768;2022-12-07T03:24:27;24.63;;;13.38;;
72813;SDS011;60945;48.516;-2.768;2022-12-07T03:27:03;24.40;;;12.82;;
72813;SDS011;60945;48.516;-2.768;2022-12-07T03:29:38;21.75;;;12.27;;
72813;SDS011;60945;48.516;-2.768;2022-12-07T03:32:26;22.40;;;12.20;;
72813;SDS011;60945;48.516;-2.768;2022-12-07T03:35:07;20.45;;;12.40;;
72813;SDS011;60945;48.516;-2.768;2022-12-07T03:37:55;23.35;;;12.05;;
72813;SDS011;60945;48.516;-2.768;2022-12-07T03:43:28;24.20;;;13.37;;
72813;SDS011;60945;48.516;-2.768;2022-12-07T03:46:00;22.90;;;12.07;;
72813;SDS011;60945;48.516;-2.768;2022-12-07T03:51:30;26.80;;;13.80;;
72813;SDS011;60945;48.516;-2.768;2022-12-07T03:57:27;20.88;;;12.27;;
72813;SDS011;60945;48.516;-2.768;2022-12-07T03:59:55;24.13;;;13.10;;
72813;SDS011;60945;48.516;-2.768;2022-12-07T04:02:25;21.90;;;12.07;;
72813;SDS011;60945;48.516;-2.768;2022-12-07T04:04:52;29.02;;;13.30;;
72813;SDS011;60945;48.516;-2.768;2022-12-07T04:07:18;20.38;;;11.90;;
72813;SDS011;60945;48.516;-2.768;2022-12-07T04:09:43;19.75;;;11.35;;
72813;SDS011;60945;48.516;-2.768;2022-12-07T04:12:09;21.55;;;11.65;;
72813;SDS011;60945;48.516;-2.768;2022-12-07T04:14:35;20.90;;;12.68;;
72813;SDS011;60945;48.516;-2.768;2022-12-07T04:17:01;22.70;;;11.73;;
72813;SDS011;60945;48.516;-2.768;2022-12-07T04:19:30;22.35;;;12.32;;
72813;SDS011;60945;48.516;-2.768;2022-12-07T04:21:58;21.25;;;11.63;;
72813;SDS011;60945;48.516;-2.768;2022-12-07T04:24:28;20.05;;;11.68;;
72813;SDS011;60945;48.516;-2.768;2022-12-07T04:26:54;21.85;;;11.30;;
72813;SDS011;60945;48.516;-2.768;2022-12-07T04:29:20;20.20;;;10.57;;
72813;SDS011;60945;48.516;-2.768;2022-12-07T04:31:47;18.88;;;11.07;;
72813;SDS011;60945;48.516;-2.768;2022-12-07T04:34:13;19.67;;;11.70;;
72813;SDS011;60945;48.516;-2.768;2022-12-07T04:36:40;20.38;;;11.73;;
72813;SDS011;60945;48.516;-2.768;2022-12-07T04:39:06;18.60;;;10.55;;
72813;SDS011;60945;48.516;-2.768;2022-12-07T04:41:33;21.33;;;11.60;;
72813;SDS011;60945;48.516;-2.768;2022-12-07T04:44:00;20.42;;;11.55;;
72813;SDS011;60945;48.516;-2.768;2022-12-07T04:46:28;19.13;;;11.40;;
72813;SDS011;60945;48.516;-2.768;2022-12-07T04:48:55;20.02;;;10.90;;
72813;SDS011;60945;48.516;-2.768;2022-12-07T04:51:23;22.00;;;11.32;;
72813;SDS011;60945;48.516;-2.768;2022-12-07T04:53:50;18.10;;;10.85;;
72813;SDS011;60945;48.516;-2.768;2022-12-07T04:56:19;21.30;;;11.18;;
72813;SDS011;60945;48.516;-2.768;2022-12-07T04:58:45;17.17;;;10.60;;
72813;SDS011;60945;48.516;-2.768;2022-12-07T05:01:14;17.83;;;9.73;;
72813;SDS011;60945;48.516;-2.768;2022-12-07T05:03:41;18.95;;;10.93;;
72813;SDS011;60945;48.516;-2.768;2022-12-07T05:06:07;21.00;;;11.77;;
72813;SDS011;60945;48.516;-2.768;2022-12-07T05:08:33;19.45;;;10.38;;
72813;SDS011;60945;48.516;-2.768;2022-12-07T05:10:59;17.10;;;10.18;;
72813;SDS011;60945;48.516;-2.768;2022-12-07T05:13:27;21.58;;;10.73;;
72813;SDS011;60945;48.516;-2.768;2022-12-07T05:15:53;20.35;;;12.00;;
72813;SDS011;60945;48.516;-2.768;2022-12-07T05:18:21;20.40;;;10.55;;
72813;SDS011;60945;48.516;-2.768;2022-12-07T05:20:47;20.27;;;11.63;;
72813;SDS011;60945;48.516;-2.768;2022-12-07T05:23:14;17.83;;;10.25;;
72813;SDS011;60945;48.516;-2.768;2022-12-07T05:25:39;18.83;;;11.27;;
72813;SDS011;60945;48.516;-2.768;2022-12-07T05:28:05;22.60;;;10.70;;
72813;SDS011;60945;48.516;-2.768;2022-12-07T05:30:31;20.38;;;10.23;;
72813;SDS011;60945;48.516;-2.768;2022-12-07T05:32:57;19.88;;;11.05;;
72813;SDS011;60945;48.516;-2.768;2022-12-07T05:35:23;19.75;;;11.43;;
72813;SDS011;60945;48.516;-2.768;2022-12-07T05:37:49;17.40;;;10.35;;
72813;SDS011;60945;48.516;-2.768;2022-12-07T05:40:15;19.60;;;10.85;;
72813;SDS011;60945;48.516;-2.768;2022-12-07T05:42:41;19.23;;;10.18;;
72813;SDS011;60945;48.516;-2.768;2022-12-07T05:45:07;21.92;;;12.45;;
72813;SDS011;60945;48.516;-2.768;2022-12-07T05:47:34;28.30;;;13.88;;
72813;SDS011;60945;48.516;-2.768;2022-12-07T05:50:00;26.95;;;12.90;;
72813;SDS011;60945;48.516;-2.768;2022-12-07T05:52:26;32.05;;;15.27;;
72813;SDS011;60945;48.516;-2.768;2022-12-07T05:54:51;25.00;;;12.60;;
72813;SDS011;60945;48.516;-2.768;2022-12-07T05:57:17;23.08;;;11.35;;
72813;SDS011;60945;48.516;-2.768;2022-12-07T05:59:43;20.70;;;10.80;;
72813;SDS011;60945;48.516;-2.768;2022-12-07T06:02:13;20.58;;;10.45;;
72813;SDS011;60945;48.516;-2.768;2022-12-07T06:04:40;22.27;;;12.43;;
72813;SDS011;60945;48.516;-2.768;2022-12-07T06:07:11;22.05;;;12.25;;
72813;SDS011;60945;48.516;-2.768;2022-12-07T06:09:38;22.90;;;11.23;;
72813;SDS011;60945;48.516;-2.768;2022-12-07T06:12:04;19.33;;;10.48;;
72813;SDS011;60945;48.516;-2.768;2022-12-07T06:14:48;20.88;;;11.68;;
72813;SDS011;60945;48.516;-2.768;2022-12-07T06:17:15;19.90;;;10.88;;
72813;SDS011;60945;48.516;-2.768;2022-12-07T06:19:41;24.92;;;11.38;;
72813;SDS011;60945;48.516;-2.768;2022-12-07T06:22:07;21.38;;;11.38;;
72813;SDS011;60945;48.516;-2.768;2022-12-07T06:24:34;21.10;;;12.10;;
72813;SDS011;60945;48.516;-2.768;2022-12-07T06:27:00;20.08;;;11.57;;
72813;SDS011;60945;48.516;-2.768;2022-12-07T06:29:26;20.17;;;11.18;;
72813;SDS011;60945;48.516;-2.768;2022-12-07T06:31:51;19.38;;;10.90;;
72813;SDS011;60945;48.516;-2.768;2022-12-07T06:34:20;22.95;;;11.50;;
72813;SDS011;60945;48.516;-2.768;2022-12-07T06:36:48;21.25;;;11.82;;
72813;SDS011;60945;48.516;-2.768;2022-12-07T06:39:17;19.95;;;11.43;;
72813;SDS011;60945;48.516;-2.768;2022-12-07T06:41:43;18.25;;;11.00;;
72813;SDS011;60945;48.516;-2.768;2022-12-07T06:44:09;19.70;;;10.88;;
72813;SDS011;60945;48.516;-2.768;2022-12-07T06:46:37;19.80;;;10.80;;
72813;SDS011;60945;48.516;-2.768;2022-12-07T06:49:04;17.45;;;10.40;;
72813;SDS011;60945;48.516;-2.768;2022-12-07T06:51:30;18.02;;;10.32;;
72813;SDS011;60945;48.516;-2.768;2022-12-07T06:54:03;19.35;;;10.60;;
72813;SDS011;60945;48.516;-2.768;2022-12-07T06:56:31;17.35;;;10.35;;
72813;SDS011;60945;48.516;-2.768;2022-12-07T06:58:57;18.58;;;10.68;;
72813;SDS011;60945;48.516;-2.768;2022-12-07T07:01:22;19.58;;;11.07;;
72813;SDS011;60945;48.516;-2.768;2022-12-07T07:03:50;18.13;;;10.35;;
72813;SDS011;60945;48.516;-2.768;2022-12-07T07:06:17;26.20;;;12.65;;
72813;SDS011;60945;48.516;-2.768;2022-12-07T07:08:43;25.92;;;14.18;;
72813;SDS011;60945;48.516;-2.768;2022-12-07T07:11:09;20.17;;;12.13;;
72813;SDS011;60945;48.516;-2.768;2022-12-07T07:13:37;19.98;;;11.10;;
72813;SDS011;60945;48.516;-2.768;2022-12-07T07:16:03;29.63;;;15.35;;
72813;SDS011;60945;48.516;-2.768;2022-12-07T07:18:30;34.75;;;19.08;;
72813;SDS011;60945;48.516;-2.768;2022-12-07T07:20:58;40.10;;;18.98;;
72813;SDS011;60945;48.516;-2.768;2022-12-07T07:23:24;41.20;;;19.65;;
72813;SDS011;60945;48.516;-2.768;2022-12-07T07:25:50;38.58;;;19.10;;
72813;SDS011;60945;48.516;-2.768;2022-12-07T07:28:16;33.17;;;17.00;;
72813;SDS011;60945;48.516;-2.768;2022-12-07T07:30:42;35.67;;;17.85;;
72813;SDS011;60945;48.516;-2.768;2022-12-07T07:33:07;31.70;;;16.23;;
72813;SDS011;60945;48.516;-2.768;2022-12-07T07:35:34;31.40;;;16.25;;
72813;SDS011;60945;48.516;-2.768;2022-12-07T07:38:01;28.30;;;14.70;;
72813;SDS011;60945;48.516;-2.768;2022-12-07T07:40:27;27.58;;;14.52;;
72813;SDS011;60945;48.516;-2.768;2022-12-07T07:42:56;25.02;;;13.27;;
72813;SDS011;60945;48.516;-2.768;2022-12-07T07:45:23;23.42;;;14.02;;
72813;SDS011;60945;48.516;-2.768;2022-12-07T07:47:50;23.73;;;13.27;;
72813;SDS011;60945;48.516;-2.768;2022-12-07T07:50:15;21.27;;;12.57;;
72813;SDS011;60945;48.516;-2.768;2022-12-07T07:52:41;20.75;;;12.68;;
72813;SDS011;60945;48.516;-2.768;2022-12-07T07:55:07;20.70;;;12.82;;
72813;SDS011;60945;48.516;-2.768;2022-12-07T07:57:34;21.10;;;12.35;;
72813;SDS011;60945;48.516;-2.768;2022-12-07T08:00:03;23.85;;;12.50;;
72813;SDS011;60945;48.516;-2.768;2022-12-07T08:02:30;21.00;;;11.95;;
72813;SDS011;60945;48.516;-2.768;2022-12-07T08:04:56;23.00;;;13.15;;
72813;SDS011;60945;48.516;-2.768;2022-12-07T08:07:22;25.08;;;13.07;;
72813;SDS011;60945;48.516;-2.768;2022-12-07T08:09:49;22.65;;;12.82;;
72813;SDS011;60945;48.516;-2.768;2022-12-07T08:12:15;24.67;;;13.43;;
72813;SDS011;60945;48.516;-2.768;2022-12-07T08:14:41;19.10;;;11.93;;
72813;SDS011;60945;48.516;-2.768;2022-12-07T08:17:06;19.95;;;12.02;;
72813;SDS011;60945;48.516;-2.768;2022-12-07T08:19:32;25.35;;;12.82;;
72813;SDS011;60945;48.516;-2.768;2022-12-07T08:21:58;23.08;;;12.60;;
72813;SDS011;60945;48.516;-2.768;2022-12-07T08:24:23;21.98;;;13.40;;
72813;SDS011;60945;48.516;-2.768;2022-12-07T08:26:50;21.15;;;12.65;;
72813;SDS011;60945;48.516;-2.768;2022-12-07T08:29:16;23.25;;;13.40;;
72813;SDS011;60945;48.516;-2.768;2022-12-07T08:31:41;20.20;;;11.23;;
72813;SDS011;60945;48.516;-2.768;2022-12-07T08:34:07;20.35;;;11.68;;
72813;SDS011;60945;48.516;-2.768;2022-12-07T08:36:35;20.33;;;11.55;;
72813;SDS011;60945;48.516;-2.768;2022-12-07T08:39:01;20.60;;;12.25;;
72813;SDS011;60945;48.516;-2.768;2022-12-07T08:41:27;23.08;;;12.45;;
72813;SDS011;60945;48.516;-2.768;2022-12-07T08:43:53;20.30;;;11.70;;
72813;SDS011;60945;48.516;-2.768;2022-12-07T08:46:19;24.17;;;13.02;;
72813;SDS011;60945;48.516;-2.768;2022-12-07T08:51:23;22.20;;;12.75;;
72813;SDS011;60945;48.516;-2.768;2022-12-07T08:53:50;30.90;;;14.30;;
72813;SDS011;60945;48.516;-2.768;2022-12-07T08:56:17;23.15;;;13.70;;
72813;SDS011;60945;48.516;-2.768;2022-12-07T08:58:44;24.92;;;14.70;;
72813;SDS011;60945;48.516;-2.768;2022-12-07T09:01:10;26.80;;;13.77;;
72813;SDS011;60945;48.516;-2.768;2022-12-07T09:03:35;27.85;;;15.93;;
72813;SDS011;60945;48.516;-2.768;2022-12-07T09:06:01;27.13;;;16.23;;
72813;SDS011;60945;48.516;-2.768;2022-12-07T09:08:31;28.05;;;16.45;;
72813;SDS011;60945;48.516;-2.768;2022-12-07T09:11:01;29.67;;;17.70;;
72813;SDS011;60945;48.516;-2.768;2022-12-07T09:13:27;29.60;;;19.63;;
72813;SDS011;60945;48.516;-2.768;2022-12-07T09:15:53;33.08;;;18.50;;
72813;SDS011;60945;48.516;-2.768;2022-12-07T09:18:18;35.83;;;21.08;;
72813;SDS011;60945;48.516;-2.768;2022-12-07T09:20:44;30.30;;;18.70;;
72813;SDS011;60945;48.516;-2.768;2022-12-07T09:23:09;31.50;;;17.27;;
72813;SDS011;60945;48.516;-2.768;2022-12-07T09:25:35;34.38;;;18.52;;
72813;SDS011;60945;48.516;-2.768;2022-12-07T09:28:01;33.95;;;16.95;;
72813;SDS011;60945;48.516;-2.768;2022-12-07T09:30:26;31.17;;;16.88;;
72813;SDS011;60945;48.516;-2.768;2022-12-07T09:32:53;26.63;;;16.73;;
72813;SDS011;60945;48.516;-2.768;2022-12-07T09:35:20;28.00;;;16.85;;
72813;SDS011;60945;48.516;-2.768;2022-12-07T09:37:46;32.05;;;16.80;;
72813;SDS011;60945;48.516;-2.768;2022-12-07T09:40:12;31.92;;;18.10;;
72813;SDS011;60945;48.516;-2.768;2022-12-07T09:42:41;29.65;;;19.40;;
72813;SDS011;60945;48.516;-2.768;2022-12-07T09:48:04;35.88;;;21.65;;
72813;SDS011;60945;48.516;-2.768;2022-12-07T09:50:34;36.10;;;24.27;;
72813;SDS011;60945;48.516;-2.768;2022-12-07T09:53:08;35.38;;;24.13;;
72813;SDS011;60945;48.516;-2.768;2022-12-07T09:55:38;33.00;;;22.85;;
72813;SDS011;60945;48.516;-2.768;2022-12-07T09:58:08;35.42;;;23.02;;
72813;SDS011;60945;48.516;-2.768;2022-12-07T10:00:43;30.98;;;20.17;;
72813;SDS011;60945;48.516;-2.768;2022-12-07T10:03:12;29.35;;;19.27;;
72813;SDS011;60945;48.516;-2.768;2022-12-07T10:05:39;27.08;;;18.17;;
72813;SDS011;60945;48.516;-2.768;2022-12-07T10:08:11;27.77;;;18.77;;
72813;SDS011;60945;48.516;-2.768;2022-12-07T10:10:37;29.75;;;17.52;;
72813;SDS011;60945;48.516;-2.768;2022-12-07T10:13:11;31.08;;;16.83;;
72813;SDS011;60945;48.516;-2.768;2022-12-07T10:15:46;26.60;;;14.93;;
72813;SDS011;60945;48.516;-2.768;2022-12-07T10:21:04;24.77;;;15.60;;
72813;SDS011;60945;48.516;-2.768;2022-12-07T10:23:36;24.15;;;14.77;;
72813;SDS011;60945;48.516;-2.768;2022-12-07T10:26:19;25.60;;;14.25;;
72813;SDS011;60945;48.516;-2.768;2022-12-07T10:28:47;25.15;;;14.88;;
72813;SDS011;60945;48.516;-2.768;2022-12-07T10:31:17;20.77;;;13.13;;
72813;SDS011;60945;48.516;-2.768;2022-12-07T10:33:52;23.63;;;13.43;;
72813;SDS011;60945;48.516;-2.768;2022-12-07T10:36:24;21.42;;;12.73;;
72813;SDS011;60945;48.516;-2.768;2022-12-07T10:39:03;19.90;;;12.18;;
72813;SDS011;60945;48.516;-2.768;2022-12-07T10:41:41;22.65;;;12.52;;
72813;SDS011;60945;48.516;-2.768;2022-12-07T10:44:26;25.27;;;14.10;;
72813;SDS011;60945;48.516;-2.768;2022-12-07T10:52:28;24.42;;;13.13;;
72813;SDS011;60945;48.516;-2.768;2022-12-07T11:00:24;25.05;;;13.57;;
72813;SDS011;60945;48.516;-2.768;2022-12-07T11:05:37;22.58;;;12.77;;
72813;SDS011;60945;48.516;-2.768;2022-12-07T11:10:58;21.40;;;13.80;;
72813;SDS011;60945;48.516;-2.768;2022-12-07T11:24:19;19.55;;;12.75;;
72813;SDS011;60945;48.516;-2.768;2022-12-07T11:33:18;19.48;;;12.88;;
72813;SDS011;60945;48.516;-2.768;2022-12-07T11:38:48;19.98;;;12.32;;
72813;SDS011;60945;48.516;-2.768;2022-12-07T11:41:27;19.13;;;12.23;;
72813;SDS011;60945;48.516;-2.768;2022-12-07T11:44:39;19.35;;;11.55;;
72813;SDS011;60945;48.516;-2.768;2022-12-07T11:47:14;16.75;;;11.20;;
72813;SDS011;60945;48.516;-2.768;2022-12-07T11:54:51;18.92;;;10.13;;
72813;SDS011;60945;48.516;-2.768;2022-12-07T11:57:36;16.42;;;10.25;;
72813;SDS011;60945;48.516;-2.768;2022-12-07T12:00:12;16.58;;;9.88;;
72813;SDS011;60945;48.516;-2.768;2022-12-07T12:02:58;14.75;;;8.65;;
72813;SDS011;60945;48.516;-2.768;2022-12-07T12:05:29;14.55;;;8.60;;
72813;SDS011;60945;48.516;-2.768;2022-12-07T12:08:15;13.98;;;8.45;;
72813;SDS011;60945;48.516;-2.768;2022-12-07T12:22:47;11.68;;;7.07;;
72813;SDS011;60945;48.516;-2.768;2022-12-07T12:33:45;16.15;;;9.55;;
72813;SDS011;60945;48.516;-2.768;2022-12-07T12:39:07;17.67;;;10.50;;
72813;SDS011;60945;48.516;-2.768;2022-12-07T12:49:34;17.63;;;10.32;;
72813;SDS011;60945;48.516;-2.768;2022-12-07T12:54:59;14.93;;;8.48;;
72813;SDS011;60945;48.516;-2.768;2022-12-07T12:57:37;11.98;;;7.88;;
72813;SDS011;60945;48.516;-2.768;2022-12-07T13:00:15;18.75;;;8.90;;
72813;SDS011;60945;48.516;-2.768;2022-12-07T13:02:52;15.98;;;9.85;;
72813;SDS011;60945;48.516;-2.768;2022-12-07T13:05:21;17.38;;;10.00;;
72813;SDS011;60945;48.516;-2.768;2022-12-07T13:10:44;17.58;;;10.70;;
72813;SDS011;60945;48.516;-2.768;2022-12-07T13:15:39;18.80;;;11.00;;
72813;SDS011;60945;48.516;-2.768;2022-12-07T13:20:57;18.02;;;11.02;;
72813;SDS011;60945;48.516;-2.768;2022-12-07T13:23:39;17.58;;;10.70;;
72813;SDS011;60945;48.516;-2.768;2022-12-07T13:29:11;19.60;;;11.27;;
72813;SDS011;60945;48.516;-2.768;2022-12-07T13:31:50;18.70;;;11.82;;
72813;SDS011;60945;48.516;-2.768;2022-12-07T13:36:52;18.67;;;11.30;;
72813;SDS011;60945;48.516;-2.768;2022-12-07T13:39:19;18.40;;;11.63;;
72813;SDS011;60945;48.516;-2.768;2022-12-07T13:42:30;17.98;;;10.90;;
72813;SDS011;60945;48.516;-2.768;2022-12-07T13:44:48;21.67;;;11.35;;
72813;SDS011;60945;48.516;-2.768;2022-12-07T13:50:24;20.05;;;10.60;;
72813;SDS011;60945;48.516;-2.768;2022-12-07T13:52:50;17.17;;;10.15;;
72813;SDS011;60945;48.516;-2.768;2022-12-07T13:55:20;19.80;;;11.40;;
72813;SDS011;60945;48.516;-2.768;2022-12-07T13:57:49;17.60;;;10.02;;
72813;SDS011;60945;48.516;-2.768;2022-12-07T14:00:35;15.82;;;10.35;;
72813;SDS011;60945;48.516;-2.768;2022-12-07T14:03:22;15.60;;;9.65;;
72813;SDS011;60945;48.516;-2.768;2022-12-07T14:08:39;16.30;;;9.38;;
72813;SDS011;60945;48.516;-2.768;2022-12-07T14:11:04;16.55;;;9.75;;
72813;SDS011;60945;48.516;-2.768;2022-12-07T14:13:38;17.17;;;9.90;;
72813;SDS011;60945;48.516;-2.768;2022-12-07T14:19:41;15.15;;;9.65;;
72813;SDS011;60945;48.516;-2.768;2022-12-07T14:22:25;19.33;;;10.20;;
72813;SDS011;60945;48.516;-2.768;2022-12-07T14:25:13;15.90;;;10.52;;
72813;SDS011;60945;48.516;-2.768;2022-12-07T14:27:49;16.73;;;9.85;;
72813;SDS011;60945;48.516;-2.768;2022-12-07T14:30:21;18.50;;;11.20;;
72813;SDS011;60945;48.516;-2.768;2022-12-07T14:32:48;17.10;;;11.23;;
72813;SDS011;60945;48.516;-2.768;2022-12-07T14:35:18;19.42;;;10.52;;
72813;SDS011;60945;48.516;-2.768;2022-12-07T14:37:45;16.13;;;10.10;;
72813;SDS011;60945;48.516;-2.768;2022-12-07T14:40:17;15.50;;;9.55;;
72813;SDS011;60945;48.516;-2.768;2022-12-07T14:42:45;15.30;;;8.52;;
72813;SDS011;60945;48.516;-2.768;2022-12-07T14:45:14;14.30;;;9.18;;
72813;SDS011;60945;48.516;-2.768;2022-12-07T14:47:43;15.48;;;9.20;;
72813;SDS011;60945;48.516;-2.768;2022-12-07T14:50:11;15.88;;;9.38;;
72813;SDS011;60945;48.516;-2.768;2022-12-07T14:52:46;14.40;;;9.20;;
72813;SDS011;60945;48.516;-2.768;2022-12-07T14:55:20;16.23;;;9.60;;
72813;SDS011;60945;48.516;-2.768;2022-12-07T14:57:50;14.63;;;9.10;;
72813;SDS011;60945;48.516;-2.768;2022-12-07T15:00:17;17.27;;;10.45;;
72813;SDS011;60945;48.516;-2.768;2022-12-07T15:02:44;15.85;;;9.68;;
72813;SDS011;60945;48.516;-2.768;2022-12-07T15:05:10;17.70;;;10.20;;
72813;SDS011;60945;48.516;-2.768;2022-12-07T15:07:36;15.23;;;8.52;;
72813;SDS011;60945;48.516;-2.768;2022-12-07T15:10:02;14.60;;;9.00;;
72813;SDS011;60945;48.516;-2.768;2022-12-07T15:12:29;13.32;;;8.48;;
72813;SDS011;60945;48.516;-2.768;2022-12-07T15:14:54;15.25;;;9.40;;
72813;SDS011;60945;48.516;-2.768;2022-12-07T15:17:20;15.65;;;8.80;;
72813;SDS011;60945;48.516;-2.768;2022-12-07T15:19:46;14.73;;;8.27;;
72813;SDS011;60945;48.516;-2.768;2022-12-07T15:22:12;15.00;;;9.43;;
72813;SDS011;60945;48.516;-2.768;2022-12-07T15:24:37;13.60;;;7.85;;
72813;SDS011;60945;48.516;-2.768;2022-12-07T15:27:03;12.93;;;8.80;;
72813;SDS011;60945;48.516;-2.768;2022-12-07T15:29:29;13.77;;;9.13;;
72813;SDS011;60945;48.516;-2.768;2022-12-07T15:31:55;13.48;;;8.35;;
72813;SDS011;60945;48.516;-2.768;2022-12-07T15:34:21;13.32;;;9.07;;
72813;SDS011;60945;48.516;-2.768;2022-12-07T15:36:47;13.77;;;8.82;;
72813;SDS011;60945;48.516;-2.768;2022-12-07T15:39:13;13.70;;;9.23;;
72813;SDS011;60945;48.516;-2.768;2022-12-07T15:41:39;13.93;;;8.52;;
72813;SDS011;60945;48.516;-2.768;2022-12-07T15:44:04;14.90;;;8.80;;
72813;SDS011;60945;48.516;-2.768;2022-12-07T15:46:48;13.38;;;8.80;;
72813;SDS011;60945;48.516;-2.768;2022-12-07T15:49:15;13.63;;;8.63;;
72813;SDS011;60945;48.516;-2.768;2022-12-07T15:51:43;13.40;;;9.15;;
72813;SDS011;60945;48.516;-2.768;2022-12-07T15:54:11;13.90;;;8.75;;
72813;SDS011;60945;48.516;-2.768;2022-12-07T15:56:40;13.60;;;8.98;;
72813;SDS011;60945;48.516;-2.768;2022-12-07T15:59:07;15.00;;;9.43;;
72813;SDS011;60945;48.516;-2.768;2022-12-07T16:01:32;14.02;;;9.50;;
72813;SDS011;60945;48.516;-2.768;2022-12-07T16:03:58;16.73;;;10.50;;
72813;SDS011;60945;48.516;-2.768;2022-12-07T16:06:24;15.30;;;10.90;;
72813;SDS011;60945;48.516;-2.768;2022-12-07T16:08:50;16.27;;;10.68;;
72813;SDS011;60945;48.516;-2.768;2022-12-07T16:11:16;15.93;;;10.57;;
72813;SDS011;60945;48.516;-2.768;2022-12-07T16:13:41;13.73;;;9.63;;
72813;SDS011;60945;48.516;-2.768;2022-12-07T16:16:09;15.40;;;10.18;;
72813;SDS011;60945;48.516;-2.768;2022-12-07T16:18:37;14.13;;;10.70;;
72813;SDS011;60945;48.516;-2.768;2022-12-07T16:21:03;15.68;;;10.52;;
72813;SDS011;60945;48.516;-2.768;2022-12-07T16:23:29;15.98;;;9.48;;
72813;SDS011;60945;48.516;-2.768;2022-12-07T16:25:55;18.48;;;10.73;;
72813;SDS011;60945;48.516;-2.768;2022-12-07T16:28:29;16.90;;;10.27;;
72813;SDS011;60945;48.516;-2.768;2022-12-07T16:31:04;15.75;;;10.85;;
72813;SDS011;60945;48.516;-2.768;2022-12-07T16:33:33;15.77;;;10.23;;
72813;SDS011;60945;48.516;-2.768;2022-12-07T16:36:00;21.80;;;14.50;;
72813;SDS011;60945;48.516;-2.768;2022-12-07T16:38:26;25.17;;;15.73;;
72813;SDS011;60945;48.516;-2.768;2022-12-07T16:40:52;21.17;;;13.98;;
72813;SDS011;60945;48.516;-2.768;2022-12-07T16:43:18;20.90;;;14.43;;
72813;SDS011;60945;48.516;-2.768;2022-12-07T16:45:45;19.38;;;12.80;;
72813;SDS011;60945;48.516;-2.768;2022-12-07T16:48:11;21.48;;;13.80;;
72813;SDS011;60945;48.516;-2.768;2022-12-07T16:50:39;21.38;;;13.40;;
72813;SDS011;60945;48.516;-2.768;2022-12-07T16:53:06;18.50;;;12.98;;
72813;SDS011;60945;48.516;-2.768;2022-12-07T16:55:35;16.67;;;11.10;;